Time;durP1;ratioP1;P1;durP2;ratioP2;P2;SDS_P1;SDS_P2;PMS_P1;PMS_P2;Temp;Humidity;BMP_temperature;BMP_pressure;BME280_temperature;BME280_humidity;BME280_pressure;Samples;Min_cycle;Max_cycle;Signal;HPM_P1;HPM_P2
2023/11/06 00:01:16;;;;;;;;;;;;;;;;;;5074171;28;5135;-60
2023/11/06 00:03:41;;;;;;;;;;;;;;;;;;5074057;28;5024;-60
2023/11/06 00:06:08;;;;;;;;;;;;;;;;;;5080028;28;4653;-59
2023/11/06 00:08:33;;;;;;;;;;;;;;;;;;5084471;28;1124;-60
2023/11/06 00:10:58;;;;;;;;;;;;;;;;;;5075979;28;5066;-59
2023/11/06 00:13:23;;;;;;;;;;;;;;;;;;5075832;28;5561;-59
2023/11/06 00:15:48;;;;;;;;;;;;;;;;;;5071897;28;4552;-60
2023/11/06 00:21:32;;;;;;;;;;;;;;;;;;5071643;28;5062;-59
2023/11/06 00:30:11;;;;;;;;;;;;;;;;;;5091128;28;4672;-59
2023/11/06 00:45:07;;;;;;;;;;;;;;;;;;5072487;28;4701;-60
2023/11/06 00:47:32;;;;;;;;;;;;;;;;;;5071377;28;5215;-59
2023/11/06 00:49:57;;;;;;;;;;;;;;;;;;5069658;28;5015;-60
2023/11/06 00:52:24;;;;;;;;;;;;;;;;;;5066773;28;4910;-58
2023/11/06 00:54:49;;;;;;;;;;;;;;;;;;5079630;28;4866;-60
2023/11/06 00:57:15;;;;;;;;;;;;;;;;;;5057150;28;4498;-60
2023/11/06 00:59:41;;;;;;;;;;;;;;;;;;5070155;28;1191;-59
2023/11/06 01:05:31;;;;;;;;;;;;;;;;;;5073413;28;4819;-59
2023/11/06 01:08:27;;;;;;;;;;;;;;;;;;5067689;28;5115;-59
2023/11/06 01:14:03;;;;;;;;;;;;;;;;;;5087606;28;5238;-60
2023/11/06 01:16:36;;;;;;;;;;;;;;;;;;5094840;28;5109;-60
2023/11/06 01:19:34;;;;;;;;;;;;;;;;;;5086523;28;4969;-58
2023/11/06 01:22:11;;;;;;;;;;;;;;;;;;5078752;28;4484;-59
2023/11/06 01:24:36;;;;;;;;;;;;;;;;;;5072807;28;4515;-58
2023/11/06 01:27:09;;;;;;;;;;;;;;;;;;5072695;28;4967;-59
2023/11/06 01:29:34;;;;;;;;;;;;;;;;;;5069739;28;1055;-59
2023/11/06 01:32:00;;;;;;;;;;;;;;;;;;5077330;28;5066;-60
2023/11/06 01:34:26;;;;;;;;;;;;;;;;;;5073315;28;5307;-60
2023/11/06 01:36:51;;;;;;;;;;;;;;;;;;5073693;28;5127;-59
2023/11/06 01:39:18;;;;;;;;;;;;;;;;;;5070510;28;4981;-60
2023/11/06 01:41:45;;;;;;;;;;;;;;;;;;5069708;28;1184;-60
2023/11/06 01:44:18;;;;;;;;;;;;;;;;;;5052574;28;4457;-59
2023/11/06 01:46:44;;;;;;;;;;;;;;;;;;5075176;28;5047;-59
2023/11/06 01:49:09;;;;;;;;;;;;;;;;;;5066198;28;5132;-59
2023/11/06 01:54:37;;;;;;;;;;;;;;;;;;5066955;28;4687;-59
2023/11/06 01:57:03;;;;;;;;;;;;;;;;;;5070014;28;6318;-59
2023/11/06 01:59:28;;;;;;;;;;;;;;;;;;5069824;28;993;-59
2023/11/06 02:01:55;;;;;;;;;;;;;;;;;;5052519;28;5130;-59
2023/11/06 02:07:31;;;;;;;;;;;;;;;;;;5053166;28;5108;-59
2023/11/06 02:10:09;;;;;;;;;;;;;;;;;;5083899;28;4428;-59
2023/11/06 02:12:35;;;;;;;;;;;;;;;;;;5078205;28;4731;-59
2023/11/06 02:15:00;;;;;;;;;;;;;;;;;;5070454;28;4969;-60
2023/11/06 02:17:26;;;;;;;;;;;;;;;;;;5070242;28;1138;-61
2023/11/06 02:19:51;;;;;;;;;;;;;;;;;;5054460;28;4998;-59
2023/11/06 02:22:20;;;;;;;;;;;;;;;;;;5074553;28;5044;-59
2023/11/06 02:33:56;;;;;;;;;;;;;;;;;;5093724;28;5031;-59
2023/11/06 02:36:22;;;;;;;;;;;;;;;;;;5078547;28;5344;-59
2023/11/06 02:38:47;;;;;;;;;;;;;;;;;;5059620;28;1213;-59
2023/11/06 02:41:12;;;;;;;;;;;;;;;;;;5067664;28;5004;-60
2023/11/06 02:46:40;;;;;;;;;;;;;;;;;;5065613;28;5335;-59
2023/11/06 02:49:07;;;;;;;;;;;;;;;;;;5073432;28;4471;-60
2023/11/06 02:51:32;;;;;;;;;;;;;;;;;;5092227;28;5011;-60
2023/11/06 02:53:58;;;;;;;;;;;;;;;;;;5114238;28;5032;-59
2023/11/06 02:56:41;;;;;;;;;;;;;;;;;;5081013;28;2937;-60
2023/11/06 02:59:07;;;;;;;;;;;;;;;;;;5078416;28;5037;-60
2023/11/06 03:01:33;;;;;;;;;;;;;;;;;;5066994;28;4451;-59
2023/11/06 03:03:58;;;;;;;;;;;;;;;;;;5071640;28;4619;-58
2023/11/06 03:09:27;;;;;;;;;;;;;;;;;;5075849;28;4734;-58
2023/11/06 03:11:52;;;;;;;;;;;;;;;;;;5053806;28;1336;-59
2023/11/06 03:14:19;;;;;;;;;;;;;;;;;;5058349;28;4929;-59
2023/11/06 03:16:44;;;;;;;;;;;;;;;;;;5072435;28;4500;-59
2023/11/06 03:22:30;;;;;;;;;;;;;;;;;;5060642;28;4913;-59
2023/11/06 03:24:55;;;;;;;;;;;;;;;;;;5054307;28;5188;-57
2023/11/06 03:27:20;;;;;;;;;;;;;;;;;;5054950;28;4694;-59
2023/11/06 03:29:46;;;;;;;;;;;;;;;;;;5060202;28;4639;-58
2023/11/06 03:32:11;;;;;;;;;;;;;;;;;;5050891;28;4411;-59
2023/11/06 03:34:37;;;;;;;;;;;;;;;;;;5048367;28;4949;-59
2023/11/06 03:37:03;;;;;;;;;;;;;;;;;;5051442;28;4709;-59
2023/11/06 03:39:29;;;;;;;;;;;;;;;;;;5054413;28;5014;-59
2023/11/06 03:42:05;;;;;;;;;;;;;;;;;;5063540;28;3053;-60
2023/11/06 03:44:30;;;;;;;;;;;;;;;;;;5052048;28;4435;-59
2023/11/06 03:46:56;;;;;;;;;;;;;;;;;;5052003;28;4952;-59
2023/11/06 03:49:21;;;;;;;;;;;;;;;;;;5049758;28;5063;-59
2023/11/06 03:51:57;;;;;;;;;;;;;;;;;;5052104;28;5115;-59
2023/11/06 03:54:29;;;;;;;;;;;;;;;;;;5050776;28;4750;-59
2023/11/06 03:57:13;;;;;;;;;;;;;;;;;;5053211;28;1791;-59
2023/11/06 03:59:39;;;;;;;;;;;;;;;;;;5051880;28;5136;-59
2023/11/06 04:02:05;;;;;;;;;;;;;;;;;;5052132;28;5078;-60
2023/11/06 04:04:31;;;;;;;;;;;;;;;;;;5058444;28;5093;-58
2023/11/06 04:06:56;;;;;;;;;;;;;;;;;;5056306;28;4404;-59
2023/11/06 04:09:21;;;;;;;;;;;;;;;;;;5054182;28;5017;-59
2023/11/06 04:11:47;;;;;;;;;;;;;;;;;;5071591;28;2640;-59
2023/11/06 04:20:18;;;;;;;;;;;;;;;;;;5075614;28;4738;-59
2023/11/06 04:22:44;;;;;;;;;;;;;;;;;;5074408;28;4933;-59
2023/11/06 04:25:09;;;;;;;;;;;;;;;;;;5076434;28;5217;-59
2023/11/06 04:27:34;;;;;;;;;;;;;;;;;;5074176;28;5005;-59
2023/11/06 04:36:05;;;;;;;;;;;;;;;;;;5073636;28;5099;-59
2023/11/06 04:38:31;;;;;;;;;;;;;;;;;;5072424;28;968;-59
2023/11/06 04:40:56;;;;;;;;;;;;;;;;;;5073718;28;4716;-59
2023/11/06 04:43:22;;;;;;;;;;;;;;;;;;5075049;28;5739;-60
2023/11/06 04:45:48;;;;;;;;;;;;;;;;;;5073719;28;4969;-59
2023/11/06 04:48:21;;;;;;;;;;;;;;;;;;5055577;28;5155;-59
2023/11/06 05:02:59;;;;;;;;;;;;;;;;;;5085478;28;5051;-59
2023/11/06 05:05:24;;;;;;;;;;;;;;;;;;5087642;28;2467;-59
2023/11/06 05:07:50;;;;;;;;;;;;;;;;;;5077979;28;4889;-59
2023/11/06 05:10:15;;;;;;;;;;;;;;;;;;5078236;28;4697;-59
2023/11/06 05:12:40;;;;;;;;;;;;;;;;;;5067836;28;5124;-58
2023/11/06 05:15:06;;;;;;;;;;;;;;;;;;5068889;28;5084;-59
2023/11/06 05:17:31;;;;;;;;;;;;;;;;;;5070662;28;3227;-59
2023/11/06 05:20:14;;;;;;;;;;;;;;;;;;5069305;28;4481;-59
2023/11/06 05:22:39;;;;;;;;;;;;;;;;;;5064216;28;4430;-59
2023/11/06 05:25:05;;;;;;;;;;;;;;;;;;5080176;28;4668;-60
2023/11/06 05:27:30;;;;;;;;;;;;;;;;;;5100666;28;5038;-59
2023/11/06 05:29:56;;;;;;;;;;;;;;;;;;5091740;28;4975;-57
2023/11/06 05:32:21;;;;;;;;;;;;;;;;;;5080951;28;3087;-59
2023/11/06 05:34:46;;;;;;;;;;;;;;;;;;5088998;28;4594;-59
2023/11/06 05:37:27;;;;;;;;;;;;;;;;;;5077400;28;4485;-59
2023/11/06 05:39:52;;;;;;;;;;;;;;;;;;5068585;28;5093;-60
2023/11/06 05:42:17;;;;;;;;;;;;;;;;;;5085675;28;5075;-59
2023/11/06 05:44:43;;;;;;;;;;;;;;;;;;5092573;28;1902;-59
2023/11/06 05:47:30;;;;;;;;;;;;;;;;;;5085539;28;5017;-60
2023/11/06 05:49:56;;;;;;;;;;;;;;;;;;5070773;28;4461;-61
2023/11/06 05:52:21;;;;;;;;;;;;;;;;;;5052660;28;5218;-59
2023/11/06 05:54:46;;;;;;;;;;;;;;;;;;5075407;28;4458;-60
2023/11/06 05:57:12;;;;;;;;;;;;;;;;;;5069801;28;5435;-58
2023/11/06 05:59:38;;;;;;;;;;;;;;;;;;5068476;28;1032;-59
2023/11/06 06:02:03;;;;;;;;;;;;;;;;;;5047476;28;5041;-59
2023/11/06 06:04:30;;;;;;;;;;;;;;;;;;5070045;28;4979;-59
2023/11/06 06:06:57;;;;;;;;;;;;;;;;;;5050318;28;5046;-59
2023/11/06 06:09:46;;;;;;;;;;;;;;;;;;5072301;28;5025;-59
2023/11/06 06:12:12;;;;;;;;;;;;;;;;;;5072319;28;5073;-59
2023/11/06 06:14:37;;;;;;;;;;;;;;;;;;5074246;28;1079;-60
2023/11/06 06:17:03;;;;;;;;;;;;;;;;;;5073569;28;4448;-60
2023/11/06 06:22:31;;;;;;;;;;;;;;;;;;5073737;28;4551;-60
2023/11/06 06:24:56;;;;;;;;;;;;;;;;;;5073509;28;4980;-60
2023/11/06 06:27:22;;;;;;;;;;;;;;;;;;5073156;28;4975;-59
2023/11/06 06:29:47;;;;;;;;;;;;;;;;;;5074036;28;1081;-60
2023/11/06 06:35:15;;;;;;;;;;;;;;;;;;5074043;28;4900;-60
2023/11/06 06:37:40;;;;;;;;;;;;;;;;;;5073013;28;4421;-59
2023/11/06 06:40:08;;;;;;;;;;;;;;;;;;5073689;28;5116;-60
2023/11/06 06:42:34;;;;;;;;;;;;;;;;;;5076239;28;5424;-61
2023/11/06 06:48:02;;;;;;;;;;;;;;;;;;5077624;28;4963;-63
2023/11/06 06:50:27;;;;;;;;;;;;;;;;;;5075678;28;2758;-62
2023/11/06 06:52:52;;;;;;;;;;;;;;;;;;5071226;28;5025;-62
2023/11/06 06:55:21;;;;;;;;;;;;;;;;;;5077315;28;4953;-61
2023/11/06 06:57:46;;;;;;;;;;;;;;;;;;5080851;28;5023;-61
2023/11/06 07:00:13;;;;;;;;;;;;;;;;;;5084034;28;4607;-61
2023/11/06 07:02:38;;;;;;;;;;;;;;;;;;5084825;28;1136;-61
2023/11/06 07:05:03;;;;;;;;;;;;;;;;;;5110758;28;5106;-61
2023/11/06 07:07:29;;;;;;;;;;;;;;;;;;5080913;28;5046;-61
2023/11/06 07:09:54;;;;;;;;;;;;;;;;;;5063071;28;5249;-61
2023/11/06 07:12:20;;;;;;;;;;;;;;;;;;5087921;28;5239;-62
2023/11/06 07:14:46;;;;;;;;;;;;;;;;;;5057401;28;3308;-62
2023/11/06 07:17:20;;;;;;;;;;;;;;;;;;5071832;28;5027;-62
2023/11/06 07:19:46;;;;;;;;;;;;;;;;;;5082215;28;4667;-58
2023/11/06 07:22:11;;;;;;;;;;;;;;;;;;5088549;28;5034;-62
2023/11/06 07:24:36;;;;;;;;;;;;;;;;;;5087633;28;5033;-62
2023/11/06 07:27:03;;;;;;;;;;;;;;;;;;5081298;28;4875;-61
2023/11/06 07:29:29;;;;;;;;;;;;;;;;;;5084675;28;2660;-61
2023/11/06 07:31:54;;;;;;;;;;;;;;;;;;5071611;28;5063;-62
2023/11/06 07:34:20;;;;;;;;;;;;;;;;;;5082347;28;4736;-63
2023/11/06 07:37:16;;;;;;;;;;;;;;;;;;5077200;28;5109;-63
2023/11/06 07:39:43;;;;;;;;;;;;;;;;;;5085861;28;4987;-63
2023/11/06 07:42:11;;;;;;;;;;;;;;;;;;5069270;28;4501;-63
2023/11/06 07:44:36;;;;;;;;;;;;;;;;;;5086124;28;1918;-62
2023/11/06 07:47:01;;;;;;;;;;;;;;;;;;5080294;28;5006;-63
2023/11/06 07:49:45;;;;;;;;;;;;;;;;;;5078097;28;4446;-62
2023/11/06 07:52:11;;;;;;;;;;;;;;;;;;5053209;28;5102;-63
2023/11/06 07:54:40;;;;;;;;;;;;;;;;;;5071345;28;5017;-63
2023/11/06 07:57:05;;;;;;;;;;;;;;;;;;5061027;28;4506;-63
2023/11/06 07:59:31;;;;;;;;;;;;;;;;;;5072100;28;1032;-61
2023/11/06 08:01:57;;;;;;;;;;;;;;;;;;5107356;28;4596;-62
2023/11/06 08:04:22;;;;;;;;;;;;;;;;;;5075573;28;4965;-62
2023/11/06 08:06:47;;;;;;;;;;;;;;;;;;5075893;28;5111;-62
2023/11/06 08:09:13;;;;;;;;;;;;;;;;;;5073128;28;4468;-62
2023/11/06 08:11:38;;;;;;;;;;;;;;;;;;5074532;28;1269;-63
2023/11/06 08:14:03;;;;;;;;;;;;;;;;;;5077499;28;5075;-63
2023/11/06 08:16:32;;;;;;;;;;;;;;;;;;5077354;28;4937;-63
2023/11/06 08:18:58;;;;;;;;;;;;;;;;;;5075958;28;4585;-63
2023/11/06 08:24:26;;;;;;;;;;;;;;;;;;5078076;28;5243;-62
2023/11/06 08:30:12;;;;;;;;;;;;;;;;;;5074199;28;4952;-64
2023/11/06 08:32:37;;;;;;;;;;;;;;;;;;5070606;28;3026;-62
2023/11/06 08:35:05;;;;;;;;;;;;;;;;;;5073894;28;5088;-62
2023/11/06 08:37:32;;;;;;;;;;;;;;;;;;5086178;28;4557;-63
2023/11/06 08:39:57;;;;;;;;;;;;;;;;;;5068046;28;5027;-62
2023/11/06 08:42:23;;;;;;;;;;;;;;;;;;5066578;28;5884;-59
2023/11/06 08:44:48;;;;;;;;;;;;;;;;;;5065980;28;2503;-61
2023/11/06 08:47:15;;;;;;;;;;;;;;;;;;5069294;28;4720;-63
2023/11/06 08:49:41;;;;;;;;;;;;;;;;;;5047606;28;5063;-63
2023/11/06 08:52:06;;;;;;;;;;;;;;;;;;5072851;28;5068;-62
2023/11/06 08:54:33;;;;;;;;;;;;;;;;;;5073474;28;4909;-59
2023/11/06 08:56:58;;;;;;;;;;;;;;;;;;5087207;28;5063;-62
2023/11/06 08:59:23;;;;;;;;;;;;;;;;;;5107093;28;1034;-63
2023/11/06 09:01:49;;;;;;;;;;;;;;;;;;5072396;28;5090;-62
2023/11/06 09:13:48;;;;;;;;;;;;;;;;;;5068109;28;5342;-63
2023/11/06 09:22:19;;;;;;;;;;;;;;;;;;5082509;28;5024;-67
2023/11/06 09:24:46;;;;;;;;;;;;;;;;;;5076593;28;4435;-65
2023/11/06 09:27:19;;;;;;;;;;;;;;;;;;5072156;28;4522;-66
2023/11/06 09:29:45;;;;;;;;;;;;;;;;;;5073228;28;2843;-61
2023/11/06 09:32:10;;;;;;;;;;;;;;;;;;5081022;28;5305;-62
2023/11/06 09:34:36;;;;;;;;;;;;;;;;;;5054408;28;4430;-59
2023/11/06 09:37:02;;;;;;;;;;;;;;;;;;5080877;28;4851;-61
2023/11/06 09:39:27;;;;;;;;;;;;;;;;;;5078379;28;5161;-61
2023/11/06 09:41:53;;;;;;;;;;;;;;;;;;5070760;28;2705;-62
2023/11/06 09:44:19;;;;;;;;;;;;;;;;;;5075240;28;4390;-70
2023/11/06 09:47:09;;;;;;;;;;;;;;;;;;5069033;28;4881;-67
2023/11/06 09:49:51;;;;;;;;;;;;;;;;;;5080887;28;5066;-66
2023/11/06 09:52:18;;;;;;;;;;;;;;;;;;5033403;28;5009;-67
2023/11/06 09:54:45;;;;;;;;;;;;;;;;;;5068823;28;5118;-67
2023/11/06 09:57:11;;;;;;;;;;;;;;;;;;5058068;28;4768;-64
2023/11/06 09:59:36;;;;;;;;;;;;;;;;;;5036645;28;2999;-64
2023/11/06 10:02:12;;;;;;;;;;;;;;;;;;5062574;28;5603;-60
2023/11/06 10:04:38;;;;;;;;;;;;;;;;;;5075508;28;5160;-61
2023/11/06 10:07:04;;;;;;;;;;;;;;;;;;5076610;28;5027;-62
2023/11/06 10:09:47;;;;;;;;;;;;;;;;;;5070871;28;4764;-61
2023/11/06 10:12:18;;;;;;;;;;;;;;;;;;5071902;28;5127;-62
2023/11/06 10:14:45;;;;;;;;;;;;;;;;;;5070611;28;1089;-63
2023/11/06 10:17:11;;;;;;;;;;;;;;;;;;5073306;28;4467;-63
2023/11/06 10:26:05;;;;;;;;;;;;;;;;;;5069762;28;4478;-62
2023/11/06 10:28:32;;;;;;;;;;;;;;;;;;5095823;28;4610;-60
2023/11/06 10:30:57;;;;;;;;;;;;;;;;;;5055638;28;4972;-65
2023/11/06 10:33:23;;;;;;;;;;;;;;;;;;5072060;28;4612;-61
2023/11/06 10:35:48;;;;;;;;;;;;;;;;;;5068628;28;2909;-60
2023/11/06 10:38:27;;;;;;;;;;;;;;;;;;5090539;28;4574;-61
2023/11/06 10:40:53;;;;;;;;;;;;;;;;;;5072872;28;4579;-60
2023/11/06 10:46:21;;;;;;;;;;;;;;;;;;5073231;28;5115;-60
2023/11/06 10:51:58;;;;;;;;;;;;;;;;;;5069889;28;4617;-60
2023/11/06 10:54:24;;;;;;;;;;;;;;;;;;5049814;28;4688;-60
2023/11/06 10:56:49;;;;;;;;;;;;;;;;;;5054206;28;1147;-60
2023/11/06 10:59:15;;;;;;;;;;;;;;;;;;5051145;28;4675;-61
2023/11/06 11:01:40;;;;;;;;;;;;;;;;;;5054696;28;5016;-60
2023/11/06 11:04:08;;;;;;;;;;;;;;;;;;5053059;28;4695;-59
2023/11/06 11:06:33;;;;;;;;;;;;;;;;;;5050174;28;4508;-58
2023/11/06 11:09:27;;;;;;;;;;;;;;;;;;5070334;28;5168;-59
2023/11/06 11:11:53;;;;;;;;;;;;;;;;;;5071037;28;1455;-59
2023/11/06 11:17:38;;;;;;;;;;;;;;;;;;5070601;28;4608;-60
2023/11/06 11:20:07;;;;;;;;;;;;;;;;;;5064830;28;4601;-59
2023/11/06 11:23:01;;;;;;;;;;;;;;;;;;5069290;28;5068;-61
2023/11/06 11:25:47;;;;;;;;;;;;;;;;;;5062172;28;4479;-60
2023/11/06 11:28:16;;;;;;;;;;;;;;;;;;5056429;28;4475;-59
2023/11/06 11:31:16;;;;;;;;;;;;;;;;;;5072273;28;4621;-60
2023/11/06 11:34:00;;;;;;;;;;;;;;;;;;5071319;28;5149;-59
2023/11/06 11:36:32;;;;;;;;;;;;;;;;;;5074920;28;5135;-59
2023/11/06 11:42:01;;;;;;;;;;;;;;;;;;5074070;28;4652;-59
2023/11/06 11:44:26;;;;;;;;;;;;;;;;;;5074882;28;1914;-59
2023/11/06 11:46:53;;;;;;;;;;;;;;;;;;5076337;28;4892;-60
2023/11/06 11:52:51;;;;;;;;;;;;;;;;;;5074588;28;4454;-59
2023/11/06 11:55:37;;;;;;;;;;;;;;;;;;5070987;28;4458;-59
2023/11/06 11:58:06;;;;;;;;;;;;;;;;;;5037031;28;4746;-60
2023/11/06 12:00:36;;;;;;;;;;;;;;;;;;5072341;28;4491;-59
2023/11/06 12:03:04;;;;;;;;;;;;;;;;;;5070275;28;4971;-59
2023/11/06 12:05:29;;;;;;;;;;;;;;;;;;5074427;28;1909;-60
2023/11/06 12:07:55;;;;;;;;;;;;;;;;;;5087738;28;4463;-59
2023/11/06 12:10:29;;;;;;;;;;;;;;;;;;5070788;28;5112;-59
2023/11/06 12:12:56;;;;;;;;;;;;;;;;;;5068734;28;5044;-59
2023/11/06 12:15:34;;;;;;;;;;;;;;;;;;5070296;28;5081;-58
2023/11/06 12:18:06;;;;;;;;;;;;;;;;;;5103726;28;5006;-58
2023/11/06 12:32:43;;;;;;;;;;;;;;;;;;5073991;28;4709;-59
2023/11/06 12:35:15;;;;;;;;;;;;;;;;;;5052722;28;5081;-59
2023/11/06 12:37:49;;;;;;;;;;;;;;;;;;5057812;28;4892;-59
2023/11/06 12:40:16;;;;;;;;;;;;;;;;;;5072111;28;4646;-60
2023/11/06 12:42:42;;;;;;;;;;;;;;;;;;5057229;28;4524;-59
2023/11/06 12:45:23;;;;;;;;;;;;;;;;;;5072982;28;4508;-60
2023/11/06 12:51:10;;;;;;;;;;;;;;;;;;5080667;28;5262;-60
2023/11/06 12:56:38;;;;;;;;;;;;;;;;;;5075645;28;4743;-59
2023/11/06 12:59:04;;;;;;;;;;;;;;;;;;5077069;28;4522;-59
2023/11/06 13:01:32;;;;;;;;;;;;;;;;;;5090544;28;5050;-60
2023/11/06 13:03:59;;;;;;;;;;;;;;;;;;5073671;28;4666;-59
2023/11/06 13:06:24;;;;;;;;;;;;;;;;;;5084926;28;4931;-60
2023/11/06 13:08:49;;;;;;;;;;;;;;;;;;5070964;28;1077;-59
2023/11/06 13:11:15;;;;;;;;;;;;;;;;;;5069826;28;4891;-59
2023/11/06 13:13:40;;;;;;;;;;;;;;;;;;5072521;28;4544;-60
2023/11/06 13:16:07;;;;;;;;;;;;;;;;;;5091735;28;4820;-60
2023/11/06 13:18:36;;;;;;;;;;;;;;;;;;5082812;28;4702;-60
2023/11/06 13:21:25;;;;;;;;;;;;;;;;;;5059158;28;5070;-60
2023/11/06 13:23:50;;;;;;;;;;;;;;;;;;5090016;28;1080;-60
2023/11/06 13:26:15;;;;;;;;;;;;;;;;;;5054879;28;4503;-60
2023/11/06 13:28:42;;;;;;;;;;;;;;;;;;5074513;28;4476;-60
2023/11/06 13:31:07;;;;;;;;;;;;;;;;;;5084734;28;4924;-59
2023/11/06 13:33:34;;;;;;;;;;;;;;;;;;5077485;28;4739;-60
2023/11/06 13:35:59;;;;;;;;;;;;;;;;;;5054937;28;5123;-59
2023/11/06 13:38:24;;;;;;;;;;;;;;;;;;5088062;28;1111;-59
2023/11/06 13:40:51;;;;;;;;;;;;;;;;;;5067007;28;4632;-59
2023/11/06 13:43:18;;;;;;;;;;;;;;;;;;5064461;28;4678;-65
2023/11/06 13:45:45;;;;;;;;;;;;;;;;;;5066540;28;5007;-69
2023/11/06 13:48:11;;;;;;;;;;;;;;;;;;5049391;28;5261;-68
2023/11/06 13:50:46;;;;;;;;;;;;;;;;;;5068616;28;3018;-68
2023/11/06 13:53:14;;;;;;;;;;;;;;;;;;5076046;28;5008;-69
2023/11/06 13:55:40;;;;;;;;;;;;;;;;;;5077170;28;4475;-63
2023/11/06 13:58:06;;;;;;;;;;;;;;;;;;5080453;28;4465;-74
2023/11/06 14:01:07;;;;;;;;;;;;;;;;;;5050718;28;4567;-75
2023/11/06 14:03:18;;;;;;;;;;;;;;;;;;5067351;28;4881;-73
2023/11/06 14:05:45;;;;;;;;;;;;;;;;;;5047903;28;1982;-72
2023/11/06 14:08:20;;;;;;;;;;;;;;;;;;5070021;28;5012;-80
2023/11/06 14:10:46;;;;;;;;;;;;;;;;;;5069712;28;4556;-66
2023/11/06 14:13:15;;;;;;;;;;;;;;;;;;5072149;28;5055;-65
2023/11/06 14:21:52;;;;;;;;;;;;;;;;;;5073701;28;5012;-58
2023/11/06 14:24:19;;;;;;;;;;;;;;;;;;5091877;28;5131;-59
2023/11/06 14:26:45;;;;;;;;;;;;;;;;;;5072750;28;1149;-59
2023/11/06 14:29:11;;;;;;;;;;;;;;;;;;5053301;28;4687;-69
2023/11/06 14:31:36;;;;;;;;;;;;;;;;;;5086745;28;5554;-65
2023/11/06 14:34:01;;;;;;;;;;;;;;;;;;5067090;28;5057;-64
2023/11/06 14:36:26;;;;;;;;;;;;;;;;;;5062236;28;5094;-67
2023/11/06 14:38:52;;;;;;;;;;;;;;;;;;5071815;28;2329;-64
2023/11/06 14:41:17;;;;;;;;;;;;;;;;;;5065969;28;4848;-63
2023/11/06 14:43:42;;;;;;;;;;;;;;;;;;5095891;28;4703;-61
2023/11/06 14:46:09;;;;;;;;;;;;;;;;;;5097517;28;4535;-61
2023/11/06 14:48:36;;;;;;;;;;;;;;;;;;5083861;28;5132;-63
2023/11/06 14:51:04;;;;;;;;;;;;;;;;;;5065334;28;5005;-61
2023/11/06 14:56:38;;;;;;;;;;;;;;;;;;5093257;28;4576;-61
2023/11/06 14:59:03;;;;;;;;;;;;;;;;;;5067927;28;4454;-63
2023/11/06 15:01:29;;;;;;;;;;;;;;;;;;5071859;28;4833;-65
2023/11/06 15:03:55;;;;;;;;;;;;;;;;;;5071163;28;5053;-67
2023/11/06 15:09:24;;;;;;;;;;;;;;;;;;5097288;28;5174;-62
2023/11/06 15:11:50;;;;;;;;;;;;;;;;;;5079244;28;1614;-68
2023/11/06 15:14:16;;;;;;;;;;;;;;;;;;5095861;28;4411;-60
2023/11/06 15:16:42;;;;;;;;;;;;;;;;;;5097073;28;5154;-62
2023/11/06 15:25:05;;;;;;;;;;;;;;;;;;5076266;28;4440;-66
2023/11/06 15:27:31;;;;;;;;;;;;;;;;;;5058827;28;4918;-69
2023/11/06 15:29:57;;;;;;;;;;;;;;;;;;5092074;28;5067;-63
2023/11/06 15:32:22;;;;;;;;;;;;;;;;;;5097481;28;1039;-72
2023/11/06 15:34:47;;;;;;;;;;;;;;;;;;5090516;28;4394;-72
2023/11/06 15:37:13;;;;;;;;;;;;;;;;;;5076692;28;4538;-66
2023/11/06 15:39:38;;;;;;;;;;;;;;;;;;5076265;28;4969;-63
2023/11/06 15:45:23;;;;;;;;;;;;;;;;;;5102230;28;5136;-72
2023/11/06 15:47:49;;;;;;;;;;;;;;;;;;5086866;28;2977;-73
2023/11/06 15:50:15;;;;;;;;;;;;;;;;;;5096398;28;4426;-72
2023/11/06 15:55:44;;;;;;;;;;;;;;;;;;5093663;28;4981;-73
2023/11/06 15:58:13;;;;;;;;;;;;;;;;;;5060819;28;4626;-72
2023/11/06 16:00:39;;;;;;;;;;;;;;;;;;5094600;28;5035;-74
2023/11/06 16:03:04;;;;;;;;;;;;;;;;;;5081725;28;5081;-71
2023/11/06 16:05:36;;;;;;;;;;;;;;;;;;5058532;28;3310;-70
2023/11/06 16:08:01;;;;;;;;;;;;;;;;;;5054613;28;5241;-74
2023/11/06 16:10:26;;;;;;;;;;;;;;;;;;5070488;28;5088;-74
2023/11/06 16:12:53;;;;;;;;;;;;;;;;;;5070547;28;5178;-71
2023/11/06 16:15:19;;;;;;;;;;;;;;;;;;5074707;28;4545;-64
2023/11/06 16:17:45;;;;;;;;;;;;;;;;;;5083591;28;3284;-63
2023/11/06 16:20:11;;;;;;;;;;;;;;;;;;5094366;28;5037;-63
2023/11/06 16:22:36;;;;;;;;;;;;;;;;;;5070130;28;4519;-64
2023/11/06 16:28:25;;;;;;;;;;;;;;;;;;5089966;28;5095;-70
2023/11/06 16:30:50;;;;;;;;;;;;;;;;;;5078808;28;5061;-66
2023/11/06 16:33:16;;;;;;;;;;;;;;;;;;5075845;28;5009;-59
2023/11/06 16:35:41;;;;;;;;;;;;;;;;;;5092076;28;3441;-58
2023/11/06 16:47:20;;;;;;;;;;;;;;;;;;5073186;28;4420;-61
2023/11/06 16:49:46;;;;;;;;;;;;;;;;;;5085468;28;4576;-59
2023/11/06 16:55:14;;;;;;;;;;;;;;;;;;5088129;28;5034;-61
2023/11/06 16:57:41;;;;;;;;;;;;;;;;;;5063613;28;4736;-59
2023/11/06 17:00:07;;;;;;;;;;;;;;;;;;5067101;28;5441;-74
2023/11/06 17:02:32;;;;;;;;;;;;;;;;;;5077670;28;3118;-59
2023/11/06 17:05:19;;;;;;;;;;;;;;;;;;5072275;28;5034;-61
2023/11/06 17:10:47;;;;;;;;;;;;;;;;;;5115935;28;4580;-62
2023/11/06 17:13:12;;;;;;;;;;;;;;;;;;5102646;28;4438;-61
2023/11/06 17:15:37;;;;;;;;;;;;;;;;;;5094800;28;4458;-61
2023/11/06 17:18:03;;;;;;;;;;;;;;;;;;5095157;28;4819;-61
2023/11/06 17:23:31;;;;;;;;;;;;;;;;;;5093781;28;4597;-61
2023/11/06 17:25:56;;;;;;;;;;;;;;;;;;5073240;28;5003;-61
2023/11/06 17:28:23;;;;;;;;;;;;;;;;;;5074774;28;5104;-61
2023/11/06 17:30:55;;;;;;;;;;;;;;;;;;5056727;28;4437;-60
2023/11/06 17:36:23;;;;;;;;;;;;;;;;;;5080954;28;4604;-60
2023/11/06 17:41:51;;;;;;;;;;;;;;;;;;5115006;28;4818;-59
2023/11/06 17:50:22;;;;;;;;;;;;;;;;;;5115909;28;4674;-59
2023/11/06 17:52:47;;;;;;;;;;;;;;;;;;5112662;28;4671;-60
2023/11/06 17:55:13;;;;;;;;;;;;;;;;;;5094343;28;4704;-59
2023/11/06 17:57:38;;;;;;;;;;;;;;;;;;5094188;28;4398;-59
2023/11/06 18:03:07;;;;;;;;;;;;;;;;;;5094062;28;4681;-59
2023/11/06 18:05:32;;;;;;;;;;;;;;;;;;5094243;28;1978;-58
2023/11/06 18:07:57;;;;;;;;;;;;;;;;;;5094299;28;4979;-60
2023/11/06 18:10:23;;;;;;;;;;;;;;;;;;5076295;28;4466;-59
2023/11/06 18:12:49;;;;;;;;;;;;;;;;;;5085249;28;4420;-60
2023/11/06 18:15:14;;;;;;;;;;;;;;;;;;5071853;28;5033;-60
2023/11/06 18:17:43;;;;;;;;;;;;;;;;;;5056205;28;1112;-60
2023/11/06 18:20:09;;;;;;;;;;;;;;;;;;5074098;28;4981;-61
2023/11/06 18:22:34;;;;;;;;;;;;;;;;;;5056054;28;4917;-60
2023/11/06 18:24:59;;;;;;;;;;;;;;;;;;5073933;28;5132;-60
2023/11/06 18:27:25;;;;;;;;;;;;;;;;;;5077957;28;5382;-59
2023/11/06 18:29:51;;;;;;;;;;;;;;;;;;5095255;28;1208;-60
2023/11/06 18:35:19;;;;;;;;;;;;;;;;;;5094087;28;4442;-60
2023/11/06 18:40:48;;;;;;;;;;;;;;;;;;5098523;28;5030;-59
2023/11/06 18:43:19;;;;;;;;;;;;;;;;;;5088633;28;5014;-57
2023/11/06 18:45:45;;;;;;;;;;;;;;;;;;5058588;28;4546;-57
2023/11/06 18:48:10;;;;;;;;;;;;;;;;;;5071942;28;4972;-58
2023/11/06 19:00:04;;;;;;;;;;;;;;;;;;5090182;28;4726;-59
2023/11/06 19:02:31;;;;;;;;;;;;;;;;;;5060693;28;4324;-61
2023/11/06 19:04:57;;;;;;;;;;;;;;;;;;5075910;28;5017;-64
2023/11/06 19:07:24;;;;;;;;;;;;;;;;;;5075405;28;4618;-65
2023/11/06 19:12:52;;;;;;;;;;;;;;;;;;5077679;28;4954;-64
2023/11/06 19:15:18;;;;;;;;;;;;;;;;;;5075610;28;4662;-65
2023/11/06 19:17:43;;;;;;;;;;;;;;;;;;5077549;28;1128;-65
2023/11/06 19:20:08;;;;;;;;;;;;;;;;;;5059088;28;4510;-66
2023/11/06 19:22:34;;;;;;;;;;;;;;;;;;5075628;28;4429;-64
2023/11/06 19:25:01;;;;;;;;;;;;;;;;;;5078786;28;5047;-65
2023/11/06 19:27:29;;;;;;;;;;;;;;;;;;5097037;28;4983;-65
2023/11/06 19:29:55;;;;;;;;;;;;;;;;;;5097669;28;1275;-64
2023/11/06 19:32:23;;;;;;;;;;;;;;;;;;5096341;28;4996;-64
2023/11/06 19:34:49;;;;;;;;;;;;;;;;;;5095053;28;4429;-65
2023/11/06 19:43:20;;;;;;;;;;;;;;;;;;5096739;28;4999;-66
2023/11/06 19:45:45;;;;;;;;;;;;;;;;;;5091437;28;4579;-66
2023/11/06 19:48:10;;;;;;;;;;;;;;;;;;5076604;28;4549;-67
2023/11/06 19:50:36;;;;;;;;;;;;;;;;;;5075911;28;1442;-66
2023/11/06 19:56:10;;;;;;;;;;;;;;;;;;5076593;28;4977;-66
2023/11/06 19:58:36;;;;;;;;;;;;;;;;;;5076225;28;4885;-61
2023/11/06 20:01:01;;;;;;;;;;;;;;;;;;5076255;28;4971;-61
2023/11/06 20:03:26;;;;;;;;;;;;;;;;;;5076292;28;4442;-60
2023/11/06 20:08:54;;;;;;;;;;;;;;;;;;5076950;28;4840;-60
2023/11/06 20:11:20;;;;;;;;;;;;;;;;;;5076392;28;1066;-60
2023/11/06 20:13:45;;;;;;;;;;;;;;;;;;5073974;28;4705;-61
2023/11/06 20:16:10;;;;;;;;;;;;;;;;;;5075998;28;4804;-59
2023/11/06 20:18:36;;;;;;;;;;;;;;;;;;5076049;28;5088;-60
2023/11/06 20:24:04;;;;;;;;;;;;;;;;;;5075818;28;4869;-60
2023/11/06 20:29:32;;;;;;;;;;;;;;;;;;5074643;28;4732;-59
2023/11/06 20:35:00;;;;;;;;;;;;;;;;;;5076819;28;4430;-59
2023/11/06 20:37:27;;;;;;;;;;;;;;;;;;5075728;28;4962;-58
2023/11/06 20:39:53;;;;;;;;;;;;;;;;;;5045670;28;5032;-59
2023/11/06 20:42:19;;;;;;;;;;;;;;;;;;5095834;28;4578;-59
2023/11/06 20:53:56;;;;;;;;;;;;;;;;;;5095943;28;5875;-60
2023/11/06 20:56:21;;;;;;;;;;;;;;;;;;5095516;28;4412;-60
2023/11/06 20:58:46;;;;;;;;;;;;;;;;;;5095675;28;5060;-60
2023/11/06 21:01:12;;;;;;;;;;;;;;;;;;5095182;28;4624;-61
2023/11/06 21:03:47;;;;;;;;;;;;;;;;;;5093686;28;4678;-60
2023/11/06 21:06:13;;;;;;;;;;;;;;;;;;5073345;28;5027;-60
2023/11/06 21:08:39;;;;;;;;;;;;;;;;;;5075363;28;1049;-59
2023/11/06 21:14:08;;;;;;;;;;;;;;;;;;5093245;28;4444;-60
2023/11/06 21:19:36;;;;;;;;;;;;;;;;;;5074813;28;4446;-63
2023/11/06 21:22:02;;;;;;;;;;;;;;;;;;5074826;28;4598;-63
2023/11/06 21:24:27;;;;;;;;;;;;;;;;;;5072687;28;4483;-65
2023/11/06 21:26:54;;;;;;;;;;;;;;;;;;5075347;28;1910;-63
2023/11/06 21:32:41;;;;;;;;;;;;;;;;;;5095775;28;4573;-72
2023/11/06 21:35:06;;;;;;;;;;;;;;;;;;5087501;28;5038;-72